createdAt,value
2019-05-19T00:01:44.643Z,78.35
2019-05-19T00:04:15.911Z,78.25
2019-05-19T00:06:47.181Z,78.50
2019-05-19T00:09:18.430Z,78.14
2019-05-19T00:11:49.727Z,78.34
2019-05-19T00:14:21.021Z,78.25
2019-05-19T00:16:52.258Z,78.53
2019-05-19T00:19:26.906Z,78.70
2019-05-19T00:21:56.426Z,78.76
2019-05-19T00:24:27.607Z,78.78
2019-05-19T00:26:58.887Z,78.29
2019-05-19T00:29:30.134Z,78.50
2019-05-19T00:32:01.346Z,78.52
2019-05-19T00:34:32.604Z,78.69
2019-05-19T00:37:04.029Z,79.02
2019-05-19T00:39:35.328Z,79.11
2019-05-19T00:42:06.722Z,79.29
2019-05-19T00:44:37.933Z,79.00
2019-05-19T00:47:09.183Z,79.23
2019-05-19T00:49:41.733Z,79.35
2019-05-19T00:52:13.132Z,78.73
2019-05-19T00:54:44.368Z,78.30
2019-05-19T00:57:16.122Z,78.17
2019-05-19T00:59:48.312Z,77.03
2019-05-19T01:02:19.618Z,77.22
2019-05-19T01:04:50.873Z,77.63
2019-05-19T01:07:22.147Z,77.09
2019-05-19T01:09:53.490Z,76.82
2019-05-19T01:12:24.747Z,76.56
2019-05-19T01:14:55.995Z,76.30
2019-05-19T01:17:27.280Z,76.39
2019-05-19T01:19:58.487Z,76.05
2019-05-19T01:22:30.224Z,75.81
2019-05-19T01:25:01.408Z,76.13
2019-05-19T01:27:32.663Z,76.49
2019-05-19T01:30:03.994Z,76.93
2019-05-19T01:32:35.273Z,77.32
2019-05-19T01:35:06.549Z,77.46
2019-05-19T01:37:37.762Z,77.80
2019-05-19T01:40:10.647Z,77.89
2019-05-19T01:42:41.919Z,77.91
2019-05-19T01:45:13.983Z,77.87
2019-05-19T01:47:45.249Z,77.70
2019-05-19T01:50:18.418Z,78.02
2019-05-19T01:52:50.167Z,78.34
2019-05-19T01:55:21.433Z,78.87
2019-05-19T01:57:52.692Z,79.07
2019-05-19T02:00:24.217Z,78.77
2019-05-19T02:02:55.444Z,78.91
2019-05-19T02:05:26.707Z,79.24
2019-05-19T02:07:57.941Z,79.85
2019-05-19T02:10:25.267Z,79.57
2019-05-19T02:12:56.481Z,79.22
2019-05-19T02:15:27.787Z,79.62
2019-05-19T02:17:58.957Z,79.74
2019-05-19T02:20:33.367Z,79.35
2019-05-19T02:23:03.127Z,78.91
2019-05-19T02:25:34.423Z,79.77
2019-05-19T02:28:05.672Z,79.67
2019-05-19T02:30:37.046Z,80.04
2019-05-19T02:33:08.173Z,80.38
2019-05-19T02:35:39.377Z,80.54
2019-05-19T02:38:10.622Z,80.95
2019-05-19T02:40:43.779Z,81.33
2019-05-19T02:43:16.326Z,81.61
2019-05-19T02:45:50.753Z,81.99
2019-05-19T02:48:24.008Z,82.54
2019-05-19T02:50:58.637Z,83.02
2019-05-19T02:53:31.565Z,83.24
2019-05-19T02:56:04.889Z,83.32
2019-05-19T02:58:37.129Z,83.62
2019-05-19T03:01:08.398Z,84.16
2019-05-19T03:03:39.654Z,84.33
2019-05-19T03:06:10.816Z,84.45
2019-05-19T03:08:42.083Z,84.76
2019-05-19T03:11:13.315Z,84.98
2019-05-19T03:13:44.599Z,85.35
2019-05-19T03:16:15.843Z,85.55
2019-05-19T03:18:47.061Z,86.12
2019-05-19T03:21:18.324Z,86.64
2019-05-19T03:23:49.524Z,86.37
2019-05-19T03:26:20.771Z,85.00
2019-05-19T03:28:52.029Z,84.20
2019-05-19T03:31:33.289Z,84.12
2019-05-19T03:34:04.642Z,83.96
2019-05-19T03:36:35.844Z,83.44
2019-05-19T03:39:08.578Z,83.32
2019-05-19T03:41:39.722Z,83.32
2019-05-19T03:44:10.963Z,83.24
2019-05-19T03:46:42.192Z,83.34
2019-05-19T03:49:13.372Z,83.70
2019-05-19T03:51:44.759Z,83.64
2019-05-19T03:54:16.031Z,84.19
2019-05-19T03:56:47.271Z,84.48
2019-05-19T03:59:18.528Z,84.52
2019-05-19T04:01:49.763Z,85.01
2019-05-19T04:04:20.944Z,84.80
2019-05-19T04:06:52.159Z,84.99
2019-05-19T04:09:23.452Z,85.12
2019-05-19T04:11:54.711Z,84.95
2019-05-19T04:14:26.006Z,84.89
2019-05-19T04:16:57.314Z,84.57
2019-05-19T04:19:28.530Z,84.54
2019-05-19T04:21:59.786Z,84.08
2019-05-19T04:24:31.034Z,83.92
2019-05-19T04:27:02.190Z,83.51
2019-05-19T04:29:33.382Z,83.80
2019-05-19T04:32:04.424Z,84.25
2019-05-19T04:34:35.766Z,84.75
2019-05-19T04:37:06.978Z,85.06
2019-05-19T04:39:38.170Z,85.16
2019-05-19T04:42:09.456Z,84.86
2019-05-19T04:44:40.605Z,83.83
2019-05-19T04:47:11.897Z,84.08
2019-05-19T04:49:43.158Z,83.98
2019-05-19T04:52:14.442Z,83.49
2019-05-19T04:54:45.697Z,82.93
2019-05-19T04:57:16.958Z,80.01
2019-05-19T04:59:48.125Z,78.41
2019-05-19T05:02:19.384Z,77.13
2019-05-19T05:04:50.707Z,77.27
2019-05-19T05:07:22.036Z,77.74
2019-05-19T05:09:53.276Z,78.10
2019-05-19T05:12:24.535Z,77.92
2019-05-19T05:14:55.801Z,78.34
2019-05-19T05:17:27.054Z,78.41
2019-05-19T05:19:58.296Z,78.29
2019-05-19T05:22:29.571Z,75.94
2019-05-19T05:25:00.783Z,75.32
2019-05-19T05:27:31.980Z,74.94
2019-05-19T05:30:03.259Z,74.62
2019-05-19T05:32:34.498Z,75.04
2019-05-19T05:35:05.980Z,74.83
2019-05-19T05:37:37.230Z,73.57
2019-05-19T05:40:09.331Z,71.96
2019-05-19T05:42:40.573Z,69.42
2019-05-19T05:45:12.011Z,65.13
2019-05-19T05:47:43.249Z,62.68
2019-05-19T05:50:14.678Z,60.74
2019-05-19T05:52:45.914Z,58.99
2019-05-19T05:55:22.332Z,56.56
2019-05-19T05:57:53.625Z,52.97
2019-05-19T06:00:25.038Z,51.47
2019-05-19T06:02:56.371Z,50.17
2019-05-19T06:05:28.899Z,48.52
2019-05-19T06:08:02.085Z,48.87
2019-05-19T06:10:36.072Z,48.59
2019-05-19T06:13:07.313Z,49.28
2019-05-19T06:15:38.670Z,48.79
2019-05-19T06:18:09.955Z,49.40
2019-05-19T06:20:41.175Z,49.41
2019-05-19T06:23:12.439Z,49.55
2019-05-19T06:25:43.687Z,50.56
2019-05-19T06:28:14.938Z,51.41
2019-05-19T06:30:46.491Z,52.08
2019-05-19T06:33:17.832Z,51.84
2019-05-19T06:35:49.088Z,52.40
2019-05-19T06:38:20.321Z,52.75
2019-05-19T06:40:51.562Z,54.05
2019-05-19T06:43:22.840Z,55.10
2019-05-19T06:45:54.131Z,55.25
2019-05-19T06:48:25.282Z,55.15
2019-05-19T06:50:56.573Z,56.44
2019-05-19T06:53:27.763Z,54.33
2019-05-19T06:55:59.031Z,54.23
2019-05-19T06:58:30.274Z,53.67
2019-05-19T07:01:01.522Z,54.03
2019-05-19T07:03:32.784Z,54.66
2019-05-19T07:06:04.177Z,53.94
2019-05-19T07:08:35.376Z,55.52
2019-05-19T07:11:06.632Z,54.81
2019-05-19T07:13:37.812Z,55.32
2019-05-19T07:16:09.081Z,55.30
2019-05-19T07:18:40.367Z,55.97
2019-05-19T07:21:11.740Z,56.33
2019-05-19T07:23:42.997Z,55.97
2019-05-19T07:26:14.258Z,55.25
2019-05-19T07:28:45.480Z,55.71
2019-05-19T07:31:16.754Z,54.72
2019-05-19T07:33:48.024Z,53.38
2019-05-19T07:36:19.267Z,52.74
2019-05-19T07:38:50.453Z,51.06
2019-05-19T07:41:21.746Z,50.05
2019-05-19T07:43:52.959Z,48.52
2019-05-19T07:46:24.195Z,48.54
2019-05-19T07:48:55.401Z,47.32
2019-05-19T07:51:27.967Z,46.86
2019-05-19T07:53:59.253Z,45.12
2019-05-19T07:56:30.548Z,44.19
2019-05-19T07:59:01.828Z,44.97
2019-05-19T08:01:33.228Z,46.55
2019-05-19T08:04:04.491Z,45.51
2019-05-19T08:06:38.252Z,46.15
2019-05-19T08:09:09.521Z,44.68
2019-05-19T08:11:40.771Z,44.26
2019-05-19T08:14:12.037Z,42.45
2019-05-19T08:16:43.266Z,41.36
2019-05-19T08:19:14.552Z,40.29
2019-05-19T08:21:55.984Z,40.33
2019-05-19T08:24:24.553Z,38.51
2019-05-19T08:26:55.810Z,39.68
2019-05-19T08:29:30.407Z,39.26
2019-05-19T08:32:02.859Z,37.28
2019-05-19T08:34:34.117Z,37.41
2019-05-19T08:37:05.363Z,37.56
2019-05-19T08:39:36.626Z,37.19
2019-05-19T08:42:07.840Z,37.16
2019-05-19T08:44:39.243Z,38.37
2019-05-19T08:47:10.490Z,39.92
2019-05-19T08:49:41.786Z,37.82
2019-05-19T08:52:13.038Z,38.32
2019-05-19T08:54:44.402Z,36.14
2019-05-19T08:57:15.719Z,35.49
2019-05-19T08:59:46.921Z,34.28
2019-05-19T09:02:18.153Z,34.60
2019-05-19T09:04:49.397Z,35.39
2019-05-19T09:07:20.551Z,35.51
2019-05-19T09:09:51.787Z,36.31
2019-05-19T09:12:23.014Z,36.16
2019-05-19T09:14:54.282Z,34.98
2019-05-19T09:17:25.481Z,36.02
2019-05-19T09:19:56.825Z,35.61
2019-05-19T09:22:28.059Z,36.73
2019-05-19T09:24:59.296Z,36.14
2019-05-19T09:27:30.499Z,35.78
2019-05-19T09:30:01.816Z,34.89
2019-05-19T09:32:33.096Z,36.00
2019-05-19T09:35:06.711Z,34.66
2019-05-19T09:37:37.976Z,34.95
2019-05-19T09:40:09.945Z,36.77
2019-05-19T09:42:41.184Z,37.30
2019-05-19T09:45:12.903Z,37.83
2019-05-19T09:47:46.458Z,37.49
2019-05-19T09:50:25.035Z,37.71
2019-05-19T09:52:57.578Z,38.42
2019-05-19T09:55:31.345Z,37.82
2019-05-19T09:58:02.590Z,38.92
2019-05-19T10:00:33.830Z,39.40
2019-05-19T10:03:05.161Z,38.72
2019-05-19T10:05:36.311Z,38.33
2019-05-19T10:08:07.573Z,38.16
2019-05-19T10:11:28.285Z,38.53
2019-05-19T10:13:59.392Z,39.23
2019-05-19T10:16:30.675Z,38.78
2019-05-19T10:19:01.874Z,37.98
2019-05-19T10:21:33.121Z,38.44
2019-05-19T10:24:04.375Z,39.48
2019-05-19T10:26:35.613Z,38.92
2019-05-19T10:29:06.918Z,39.35
2019-05-19T10:31:38.299Z,39.23
2019-05-19T10:34:09.537Z,38.56
2019-05-19T10:36:40.698Z,37.42
2019-05-19T10:39:11.935Z,37.44
2019-05-19T10:41:43.159Z,38.21
2019-05-19T10:44:14.461Z,36.57
2019-05-19T10:46:45.702Z,37.44
2019-05-19T10:49:17.002Z,37.55
2019-05-19T10:51:48.209Z,37.06
2019-05-19T10:54:19.526Z,34.99
2019-05-19T10:56:50.754Z,34.68
2019-05-19T10:59:21.946Z,36.76
2019-05-19T11:01:53.191Z,35.25
2019-05-19T11:04:24.454Z,36.20
2019-05-19T11:06:55.709Z,36.39
2019-05-19T11:09:26.887Z,36.75
2019-05-19T11:12:01.037Z,36.05
2019-05-19T11:14:32.287Z,36.51
2019-05-19T11:17:03.625Z,37.62
2019-05-19T11:19:34.865Z,37.10
2019-05-19T11:22:06.097Z,35.38
2019-05-19T11:24:37.426Z,36.87
2019-05-19T11:27:10.127Z,34.74
2019-05-19T11:29:41.425Z,35.40
2019-05-19T11:32:12.590Z,36.34
2019-05-19T11:34:44.321Z,36.80
2019-05-19T11:37:15.686Z,40.00
2019-05-19T11:39:49.998Z,38.86
2019-05-19T11:42:23.950Z,37.12
2019-05-19T11:44:56.816Z,38.16
2019-05-19T11:47:30.987Z,36.87
2019-05-19T11:50:02.355Z,36.70
2019-05-19T11:52:33.544Z,39.02
2019-05-19T11:55:04.734Z,39.52
2019-05-19T11:57:36.020Z,38.82
2019-05-19T12:00:08.158Z,37.01
2019-05-19T12:02:39.513Z,36.10
2019-05-19T12:05:10.980Z,36.15
2019-05-19T12:07:43.493Z,38.00
2019-05-19T12:10:15.315Z,38.05
2019-05-19T12:12:46.771Z,36.09
2019-05-19T12:15:18.233Z,37.86
2019-05-19T12:17:49.449Z,37.30
2019-05-19T12:20:20.836Z,38.51
2019-05-19T12:22:52.085Z,36.67
2019-05-19T12:25:23.328Z,37.16
2019-05-19T12:27:54.577Z,37.55
2019-05-19T12:30:25.914Z,38.50
2019-05-19T12:32:59.282Z,37.95
2019-05-19T12:35:30.274Z,36.45
2019-05-19T12:38:01.569Z,36.80
2019-05-19T12:40:32.997Z,36.31
2019-05-19T12:43:04.274Z,36.06
2019-05-19T12:45:35.569Z,36.77
2019-05-19T12:48:06.937Z,36.88
2019-05-19T12:50:38.224Z,36.67
2019-05-19T12:53:09.506Z,35.87
2019-05-19T12:55:40.792Z,35.86
2019-05-19T12:58:12.045Z,35.44
2019-05-19T13:00:43.517Z,36.32
2019-05-19T13:03:14.659Z,35.47
2019-05-19T13:05:45.936Z,36.70
2019-05-19T13:08:17.156Z,36.62
2019-05-19T13:10:48.438Z,34.61
2019-05-19T13:13:19.650Z,32.96
2019-05-19T13:15:50.948Z,32.05
2019-05-19T13:18:29.516Z,31.55
2019-05-19T13:21:01.279Z,31.32
2019-05-19T13:23:32.595Z,32.81
2019-05-19T13:26:04.111Z,30.28
2019-05-19T13:28:35.435Z,31.51
2019-05-19T13:31:09.149Z,32.14
2019-05-19T13:33:44.604Z,33.22
2019-05-19T13:36:15.889Z,33.67
2019-05-19T13:41:16.738Z,34.02
2019-05-19T13:43:47.980Z,36.04
2019-05-19T13:46:19.228Z,37.24
2019-05-19T13:48:50.508Z,38.93
2019-05-19T13:51:21.695Z,38.14
2019-05-19T13:53:53.003Z,39.98
2019-05-19T13:56:24.229Z,45.06
2019-05-19T13:58:55.677Z,50.63
2019-05-19T14:01:28.952Z,47.45
2019-05-19T14:03:59.870Z,48.22
2019-05-19T14:06:31.186Z,48.28
2019-05-19T14:09:02.477Z,48.47
2019-05-19T14:11:36.340Z,48.29
2019-05-19T14:14:07.647Z,48.67
2019-05-19T14:16:38.916Z,49.17
2019-05-19T14:19:10.199Z,49.05
2019-05-19T14:21:41.512Z,49.23
2019-05-19T14:24:12.747Z,49.52
2019-05-19T14:26:43.918Z,50.55
2019-05-19T14:29:15.178Z,49.17
2019-05-19T14:31:46.392Z,48.92
2019-05-19T14:34:22.070Z,50.10
2019-05-19T14:36:53.275Z,49.10
2019-05-19T14:39:24.622Z,49.49
2019-05-19T14:42:00.016Z,49.48
2019-05-19T14:44:31.333Z,49.11
2019-05-19T14:47:02.581Z,49.64
2019-05-19T14:49:36.156Z,51.43
2019-05-19T14:52:07.550Z,52.32
2019-05-19T14:54:39.033Z,52.19
2019-05-19T14:57:10.305Z,51.55
2019-05-19T14:59:43.969Z,50.65
2019-05-19T15:04:51.255Z,51.78
2019-05-19T15:07:25.105Z,54.24
2019-05-19T15:09:58.035Z,54.21
2019-05-19T15:12:29.492Z,54.75
2019-05-19T15:15:02.635Z,52.66
2019-05-19T15:17:33.874Z,52.87
2019-05-19T15:20:07.036Z,53.47
2019-05-19T15:22:43.992Z,51.97
2019-05-19T15:25:19.947Z,52.92
2019-05-19T15:28:04.555Z,50.91
2019-05-19T15:30:35.163Z,50.69
2019-05-19T15:33:06.474Z,49.73
2019-05-19T15:35:37.726Z,47.11
2019-05-19T15:38:09.198Z,45.98
2019-05-19T15:40:47.932Z,45.46
2019-05-19T15:43:19.204Z,44.83
2019-05-19T15:45:50.575Z,45.23
2019-05-19T15:48:21.904Z,44.55
2019-05-19T15:50:53.195Z,44.71
2019-05-19T15:53:24.515Z,44.42
2019-05-19T15:55:55.849Z,43.98
2019-05-19T15:58:32.473Z,44.69
2019-05-19T16:01:04.950Z,44.36
2019-05-19T16:03:42.371Z,43.76
2019-05-19T16:06:13.710Z,41.78
2019-05-19T16:08:45.048Z,41.20
2019-05-19T16:11:16.451Z,40.94
2019-05-19T16:13:47.733Z,40.88
2019-05-19T16:16:20.402Z,39.74
2019-05-19T16:18:53.357Z,35.71
2019-05-19T16:21:24.866Z,33.53
2019-05-19T16:23:56.135Z,32.07
2019-05-19T16:26:46.449Z,31.73
2019-05-19T16:29:17.812Z,32.50
2019-05-19T16:31:49.297Z,29.68
2019-05-19T16:34:20.535Z,29.73
2019-05-19T16:36:51.876Z,32.72
2019-05-19T16:39:23.165Z,34.71
2019-05-19T16:41:54.443Z,36.24
2019-05-19T16:44:25.599Z,37.08
2019-05-19T16:46:57.208Z,37.30
2019-05-19T16:49:28.505Z,38.00
2019-05-19T16:52:02.943Z,38.07
2019-05-19T16:54:37.623Z,38.54
2019-05-19T16:57:10.325Z,38.69
2019-05-19T16:59:41.527Z,39.99
2019-05-19T17:02:12.820Z,39.68
2019-05-19T17:04:44.455Z,40.20
2019-05-19T17:07:16.108Z,41.91
2019-05-19T17:09:47.387Z,42.09
2019-05-19T17:12:18.769Z,41.71
2019-05-19T17:14:50.023Z,42.59
2019-05-19T17:17:21.267Z,42.12
2019-05-19T17:19:52.625Z,42.52
2019-05-19T17:22:23.885Z,42.90
2019-05-19T17:24:55.202Z,43.50
2019-05-19T17:27:27.418Z,45.00
2019-05-19T17:29:58.711Z,46.06
2019-05-19T17:32:30.160Z,48.92
2019-05-19T17:35:01.535Z,47.63
2019-05-19T17:37:32.810Z,47.34
2019-05-19T17:40:04.209Z,46.51
2019-05-19T17:42:37.301Z,45.13
2019-05-19T17:45:13.788Z,43.28
2019-05-19T17:47:45.397Z,43.13
2019-05-19T17:50:18.817Z,41.43
2019-05-19T17:52:50.126Z,43.23
2019-05-19T17:55:22.028Z,43.95
2019-05-19T17:57:53.943Z,44.12
2019-05-19T18:00:37.456Z,43.13
2019-05-19T18:03:09.196Z,46.02
2019-05-19T18:05:40.454Z,46.79
2019-05-19T18:08:12.123Z,47.84
2019-05-19T18:10:43.671Z,46.69
2019-05-19T18:13:15.025Z,47.61
2019-05-19T18:15:46.553Z,47.15
2019-05-19T18:18:17.930Z,48.75
2019-05-19T18:20:49.148Z,50.96
2019-05-19T18:23:20.608Z,52.23
2019-05-19T18:25:52.281Z,53.76
2019-05-19T18:28:23.767Z,53.33
2019-05-19T18:30:55.136Z,53.63
2019-05-19T18:33:29.137Z,53.76
2019-05-19T18:36:00.598Z,53.15
2019-05-19T18:38:39.537Z,51.51
2019-05-19T18:41:25.189Z,52.09
2019-05-19T18:44:16.383Z,51.56
2019-05-19T18:46:57.776Z,52.12
2019-05-19T18:49:42.903Z,54.02
2019-05-19T18:52:14.358Z,55.21
2019-05-19T18:54:45.715Z,56.28
2019-05-19T18:57:17.019Z,56.99
2019-05-19T18:59:52.283Z,57.27
2019-05-19T19:02:23.762Z,58.19
2019-05-19T19:04:55.163Z,58.09
2019-05-19T19:07:45.281Z,58.44
2019-05-19T19:10:16.627Z,58.23
2019-05-19T19:12:50.709Z,58.34
2019-05-19T19:15:22.131Z,58.45
2019-05-19T19:17:53.372Z,59.71
2019-05-19T19:20:28.764Z,59.69
2019-05-19T19:23:00.046Z,58.79
2019-05-19T19:25:31.545Z,59.46
2019-05-19T19:28:02.794Z,59.25
2019-05-19T19:30:34.047Z,58.62
2019-05-19T19:33:05.286Z,59.35
2019-05-19T19:35:39.119Z,59.41
2019-05-19T19:38:09.548Z,58.80
2019-05-19T19:40:40.780Z,58.61
2019-05-19T19:43:12.124Z,59.02
2019-05-19T19:45:43.579Z,59.00
2019-05-19T19:48:14.922Z,59.34
2019-05-19T19:50:48.134Z,58.76
2019-05-19T19:53:19.431Z,58.74
2019-05-19T19:55:50.621Z,59.04
2019-05-19T19:58:21.852Z,59.52
2019-05-19T20:00:53.194Z,59.55
2019-05-19T20:03:24.690Z,59.99
2019-05-19T20:05:56.047Z,60.40
2019-05-19T20:08:27.298Z,60.94
2019-05-19T20:10:58.583Z,60.95
2019-05-19T20:13:29.745Z,61.38
2019-05-19T20:16:00.990Z,62.57
2019-05-19T20:18:32.310Z,63.19
2019-05-19T20:21:11.220Z,63.76
2019-05-19T20:23:42.460Z,63.88
2019-05-19T20:26:13.735Z,64.46
2019-05-19T20:28:45.021Z,64.87
2019-05-19T20:31:16.190Z,65.29
2019-05-19T20:33:47.530Z,65.15
2019-05-19T20:36:18.760Z,65.37
2019-05-19T20:38:50.257Z,65.86
2019-05-19T20:41:21.547Z,66.09
2019-05-19T20:43:54.283Z,66.85
2019-05-19T20:46:25.633Z,67.58
2019-05-19T20:48:56.915Z,68.31
2019-05-19T20:51:28.302Z,68.93
2019-05-19T20:53:59.563Z,69.05
2019-05-19T20:56:30.713Z,69.58
2019-05-19T20:59:01.995Z,69.52
2019-05-19T21:01:33.875Z,69.98
2019-05-19T21:04:05.240Z,70.47
2019-05-19T21:06:36.834Z,70.90
2019-05-19T21:09:11.528Z,71.39
2019-05-19T21:11:42.804Z,72.05
2019-05-19T21:14:15.668Z,72.24
2019-05-19T21:16:46.894Z,72.48
2019-05-19T21:19:18.196Z,72.62
2019-05-19T21:21:49.446Z,72.94
2019-05-19T21:24:20.751Z,73.56
2019-05-19T21:26:53.473Z,74.21
2019-05-19T21:29:24.887Z,74.29
2019-05-19T21:31:56.177Z,74.35
2019-05-19T21:34:27.447Z,74.53
2019-05-19T21:36:58.665Z,74.67
2019-05-19T21:39:31.359Z,74.25
2019-05-19T21:42:02.737Z,73.81
2019-05-19T21:44:34.006Z,73.75
2019-05-19T21:47:05.250Z,74.20
2019-05-19T21:49:36.530Z,74.72
2019-05-19T21:52:07.834Z,75.23
2019-05-19T21:54:39.089Z,75.71
2019-05-19T21:57:13.314Z,76.10
2019-05-19T21:59:58.106Z,76.32
2019-05-19T22:02:32.409Z,76.66
2019-05-19T22:05:03.787Z,77.14
2019-05-19T22:08:00.861Z,77.17
2019-05-19T22:10:32.189Z,77.45
2019-05-19T22:13:03.380Z,76.89
2019-05-19T22:15:34.702Z,76.94
2019-05-19T22:18:06.013Z,77.38
2019-05-19T22:20:37.238Z,77.81
2019-05-19T22:23:08.467Z,78.34
2019-05-19T22:25:39.746Z,78.77
2019-05-19T22:28:10.994Z,79.00
2019-05-19T22:30:42.263Z,79.84
2019-05-19T22:33:14.224Z,80.31
2019-05-19T22:35:46.117Z,80.47
2019-05-19T22:38:17.478Z,81.05
2019-05-19T22:40:48.859Z,81.41
2019-05-19T22:43:20.076Z,81.91
2019-05-19T22:45:51.247Z,82.34
2019-05-19T22:48:22.767Z,82.73
2019-05-19T22:50:54.027Z,83.12
2019-05-19T22:53:25.330Z,83.36
2019-05-19T22:55:56.496Z,83.61
2019-05-19T22:58:27.896Z,83.66
2019-05-19T23:00:59.800Z,83.75
2019-05-19T23:03:31.233Z,84.15
2019-05-19T23:06:02.492Z,84.75
2019-05-19T23:08:33.786Z,84.86
2019-05-19T23:11:08.215Z,85.18
2019-05-19T23:13:39.486Z,85.19
2019-05-19T23:16:10.888Z,85.48
2019-05-19T23:18:42.278Z,85.61
2019-05-19T23:21:13.542Z,86.05
2019-05-19T23:23:44.757Z,86.34
2019-05-19T23:26:16.081Z,86.76
2019-05-19T23:28:47.346Z,86.96
2019-05-19T23:31:18.604Z,86.95
2019-05-19T23:33:49.861Z,87.44
2019-05-19T23:36:21.198Z,87.84
2019-05-19T23:38:52.479Z,88.26
2019-05-19T23:41:23.724Z,88.56
2019-05-19T23:43:54.965Z,88.59
2019-05-19T23:46:26.355Z,88.41
2019-05-19T23:48:57.620Z,88.46
2019-05-19T23:51:28.899Z,88.59
2019-05-19T23:54:00.150Z,88.91
2019-05-19T23:56:31.484Z,89.22
2019-05-19T23:59:02.865Z,89.26
